Time;durP1;ratioP1;P1;durP2;ratioP2;P2;SDS_P1;SDS_P2;PMS_P1;PMS_P2;Temp;Humidity;BMP_temperature;BMP_pressure;BME280_temperature;BME280_humidity;BME280_pressure;Samples;Min_cycle;Max_cycle;Signal;HPM_P1;HPM_P2
2022/03/01 00:00:16;;;;;;;12.90;7.57;;;2.10;99.90;;;;;;5088510;28;20452;-71
2022/03/01 00:02:44;;;;;;;11.27;6.33;;;2.30;99.90;;;;;;5081867;28;20456;-71
2022/03/01 00:05:11;;;;;;;12.73;7.30;;;2.00;99.90;;;;;;5090156;28;20444;-71
2022/03/01 00:07:38;;;;;;;11.10;7.27;;;2.10;99.90;;;;;;5089234;28;20483;-73
2022/03/01 00:10:06;;;;;;;8.20;6.27;;;2.00;99.90;;;;;;5091590;28;20446;-71
2022/03/01 00:12:35;;;;;;;9.37;6.83;;;2.10;99.90;;;;;;5091373;28;20463;-71
2022/03/01 00:15:02;;;;;;;10.00;6.87;;;2.00;99.90;;;;;;5094095;28;20452;-71
2022/03/01 00:17:29;;;;;;;13.30;7.57;;;2.00;99.90;;;;;;5092781;28;20517;-71
2022/03/01 00:19:56;;;;;;;8.70;6.40;;;1.70;99.90;;;;;;5093824;28;20445;-70
2022/03/01 00:22:23;;;;;;;9.87;6.80;;;1.70;99.90;;;;;;5093283;28;20487;-69
2022/03/01 00:24:50;;;;;;;13.33;6.70;;;1.60;99.90;;;;;;5093935;28;20452;-71
2022/03/01 00:27:17;;;;;;;10.97;6.43;;;1.50;99.90;;;;;;5093252;28;20486;-70
2022/03/01 00:29:45;;;;;;;11.53;6.53;;;1.30;99.90;;;;;;5092686;28;20484;-71
2022/03/01 00:32:12;;;;;;;10.90;6.20;;;1.80;99.90;;;;;;5093826;28;20526;-71
2022/03/01 00:34:39;;;;;;;8.70;6.57;;;1.60;99.90;;;;;;5092849;28;20480;-71
2022/03/01 00:37:06;;;;;;;13.67;5.83;;;1.60;99.90;;;;;;5093444;28;20443;-71
2022/03/01 00:39:33;;;;;;;13.43;7.40;;;1.50;99.90;;;;;;5093274;28;20521;-71
2022/03/01 00:42:00;;;;;;;8.43;5.10;;;1.40;99.90;;;;;;5093371;28;20978;-71
2022/03/01 00:44:27;;;;;;;7.00;5.77;;;1.30;99.90;;;;;;5092526;28;20542;-71
2022/03/01 00:46:55;;;;;;;7.90;6.20;;;1.10;99.90;;;;;;5092744;28;20481;-71
2022/03/01 00:49:22;;;;;;;9.93;6.07;;;1.20;99.90;;;;;;5087711;28;20522;-69
2022/03/01 00:51:49;;;;;;;8.50;5.53;;;1.20;99.90;;;;;;5091801;28;20532;-71
2022/03/01 00:54:16;;;;;;;11.37;7.40;;;1.20;99.90;;;;;;5093227;28;20554;-71
2022/03/01 00:56:43;;;;;;;8.70;5.43;;;1.10;99.90;;;;;;5091908;28;20537;-71
2022/03/01 00:59:10;;;;;;;12.20;6.67;;;1.00;99.90;;;;;;5092385;28;20562;-71
2022/03/01 01:01:37;;;;;;;8.60;5.40;;;0.90;99.90;;;;;;5092277;28;20531;-70
2022/03/01 01:04:06;;;;;;;10.37;6.10;;;0.70;99.90;;;;;;5093077;28;20446;-70
2022/03/01 01:06:33;;;;;;;11.30;6.83;;;;;;;;;;5091210;28;20572;-71
2022/03/01 01:09:00;;;;;;;7.97;5.47;;;;;;;;;;5092588;28;20448;-70
2022/03/01 01:11:27;;;;;;;11.30;6.40;;;;;;;;;;5091884;28;20481;-71
2022/03/01 01:13:54;;;;;;;7.30;5.80;;;;;;;;;;5092767;28;20453;-70
2022/03/01 01:16:21;;;;;;;9.97;5.40;;;;;;;;;;5091963;28;20445;-70
2022/03/01 01:18:49;;;;;;;10.07;6.37;;;;;;;;;;5084743;28;20447;-71
2022/03/01 01:21:17;;;;;;;9.27;6.20;;;;;;;;;;5092860;28;20450;-71
2022/03/01 01:23:44;;;;;;;12.60;6.73;;;;;;;;;;5091717;28;20459;-70
2022/03/01 01:26:12;;;;;;;8.67;5.70;;;;;;;;;;5091734;28;20531;-70
2022/03/01 01:28:39;;;;;;;10.50;6.30;;;;;;;;;;5091648;28;20446;-69
2022/03/01 01:31:06;;;;;;;8.87;6.40;;;;;;;;;;5092752;28;20445;-71
2022/03/01 01:33:33;;;;;;;15.33;7.10;;;;;;;;;;5091577;28;20441;-69
2022/03/01 01:36:00;;;;;;;11.90;7.30;;;;;;;;;;5091550;28;20540;-71
2022/03/01 01:38:29;;;;;;;8.80;5.60;;;;;;;;;;5082000;28;20934;-69
2022/03/01 01:40:56;;;;;;;6.70;5.10;;;;;;;;;;5092411;28;20449;-71
2022/03/01 01:43:23;;;;;;;11.23;5.97;;;;;;;;;;5091398;28;20537;-70
2022/03/01 01:45:50;;;;;;;10.03;5.80;;;;;;;;;;5091603;28;20536;-70
2022/03/01 01:48:17;;;;;;;9.90;6.03;;;;;;;;;;5091378;28;21003;-70
2022/03/01 01:50:45;;;;;;;11.13;7.10;;;;;;;;;;5091122;28;20464;-70
2022/03/01 01:53:12;;;;;;;11.90;7.67;;;;;;;;;;5091518;28;20506;-70
2022/03/01 01:55:40;;;;;;;8.17;6.10;;;;;;;;;;5090262;28;20451;-70
2022/03/01 01:58:07;;;;;;;10.83;7.17;;;;;;;;;;5091804;28;20446;-70
2022/03/01 02:00:35;;;;;;;8.83;5.77;;;;;;;;;;5090566;28;20443;-70
2022/03/01 02:03:02;;;;;;;12.20;7.27;;;;;;;;;;5090905;28;20566;-70
2022/03/01 02:05:29;;;;;;;11.40;6.53;;;;;;;;;;5088002;28;20434;-70
2022/03/01 02:07:57;;;;;;;7.43;5.50;;;;;;;;;;5091490;28;20505;-70
2022/03/01 02:10:24;;;;;;;14.03;6.47;;;;;;;;;;5090651;28;20484;-70
2022/03/01 02:12:52;;;;;;;13.53;7.23;;;;;;;;;;5090495;28;20902;-70
2022/03/01 02:15:20;;;;;;;11.33;6.47;;;;;;;;;;5086382;28;20475;-71
2022/03/01 02:17:47;;;;;;;8.10;5.80;;;;;;;;;;5088170;28;20541;-69
2022/03/01 02:20:17;;;;;;;10.13;5.90;;;;;;;;;;5082341;28;20798;-71
2022/03/01 02:22:44;;;;;;;15.87;6.80;;;;;;;;;;5079324;28;20447;-70
2022/03/01 02:25:12;;;;;;;8.23;5.83;;;;;;;;;;5091705;28;20778;-71
2022/03/01 02:27:39;;;;;;;8.90;6.97;;;;;;;;;;5090244;28;20510;-70
2022/03/01 02:30:07;;;;;;;10.57;6.47;;;;;;;;;;5087515;28;20865;-70
2022/03/01 02:32:34;;;;;;;11.93;5.43;;;;;;;;;;5090847;28;20446;-71
2022/03/01 02:35:02;;;;;;;8.27;5.73;;;;;;;;;;5093161;28;20537;-72
2022/03/01 02:37:31;;;;;;;9.67;6.33;;;;;;;;;;5091133;28;20445;-70
2022/03/01 02:39:58;;;;;;;9.60;5.83;;;;;;;;;;5097741;28;20437;-71
2022/03/01 02:42:27;;;;;;;11.60;5.73;;;;;;;;;;5097669;28;20492;-70
2022/03/01 02:44:54;;;;;;;11.93;5.07;;;0.60;99.90;;;;;;5094655;28;21018;-70
2022/03/01 02:47:20;;;;;;;13.20;6.60;;;-0.20;1.00;;;;;;5090602;28;20476;-68
2022/03/01 02:49:47;;;;;;;10.33;6.30;;;-0.20;1.00;;;;;;5091465;28;20447;-69
2022/03/01 02:52:14;;;;;;;10.07;5.70;;;0.10;1.00;;;;;;5091435;28;20467;-71
2022/03/01 02:54:43;;;;;;;10.33;6.03;;;-0.10;1.00;;;;;;5090621;28;20546;-69
2022/03/01 02:57:09;;;;;;;13.57;5.80;;;0.20;1.00;;;;;;5091271;28;20447;-70
2022/03/01 02:59:36;;;;;;;12.70;6.13;;;0.00;1.00;;;;;;5090526;28;20536;-70
2022/03/01 03:02:04;;;;;;;9.80;5.87;;;0.00;1.00;;;;;;5091041;28;21015;-71
2022/03/01 03:04:32;;;;;;;10.97;6.57;;;0.00;1.00;;;;;;5090508;28;20444;-70
2022/03/01 03:06:58;;;;;;;12.53;7.47;;;-0.20;1.00;;;;;;5083207;28;20452;-69
2022/03/01 03:09:25;;;;;;;12.10;6.97;;;-0.10;1.00;;;;;;5085860;28;20786;-69
2022/03/01 03:11:54;;;;;;;12.70;7.60;;;0.00;1.00;;;;;;5091300;28;20478;-70
2022/03/01 03:14:20;;;;;;;10.27;6.80;;;0.00;1.00;;;;;;5090794;28;20451;-70
2022/03/01 03:16:47;;;;;;;13.70;7.60;;;-0.10;1.00;;;;;;5089954;28;20583;-71
2022/03/01 03:19:15;;;;;;;13.63;6.33;;;-0.20;1.00;;;;;;5090770;28;20458;-70
2022/03/01 03:21:44;;;;;;;13.80;6.87;;;0.00;1.00;;;;;;5090424;28;20734;-70
2022/03/01 03:24:11;;;;;;;13.63;7.30;;;0.00;1.00;;;;;;5085760;28;20445;-71
2022/03/01 03:26:38;;;;;;;16.23;7.53;;;0.10;1.00;;;;;;5089877;28;20475;-70
2022/03/01 03:29:08;;;;;;;14.70;6.60;;;0.20;1.00;;;;;;5088914;28;21000;-70
2022/03/01 03:31:36;;;;;;;11.23;6.70;;;0.30;1.00;;;;;;5080791;28;20441;-70
2022/03/01 03:34:03;;;;;;;10.97;7.80;;;0.30;1.00;;;;;;5090698;28;20440;-69
2022/03/01 03:36:30;;;;;;;14.23;8.37;;;0.50;1.00;;;;;;5083636;28;20450;-69
2022/03/01 03:38:57;;;;;;;12.20;7.03;;;0.40;1.00;;;;;;5090849;28;20814;-69
2022/03/01 03:41:24;;;;;;;14.17;7.80;;;0.40;1.00;;;;;;5090119;28;20492;-69
2022/03/01 03:43:51;;;;;;;13.13;7.00;;;0.20;1.00;;;;;;5091854;28;20451;-69
2022/03/01 03:46:20;;;;;;;8.03;6.73;;;0.20;1.00;;;;;;5094553;28;20459;-69
2022/03/01 03:48:48;;;;;;;10.63;7.43;;;0.40;1.00;;;;;;5081127;28;20488;-70
2022/03/01 03:51:15;;;;;;;13.17;7.27;;;0.40;1.00;;;;;;5094503;28;20459;-71
2022/03/01 03:53:42;;;;;;;11.60;7.17;;;0.10;1.00;;;;;;5093727;28;21157;-71
2022/03/01 03:56:09;;;;;;;11.87;7.10;;;0.00;1.00;;;;;;5094148;28;20444;-72
2022/03/01 03:58:36;;;;;;;14.57;6.80;;;0.10;1.00;;;;;;5093530;28;20453;-71
2022/03/01 04:01:03;;;;;;;11.13;6.40;;;0.20;1.00;;;;;;5094523;28;20534;-70
2022/03/01 04:03:32;;;;;;;12.63;6.83;;;0.10;1.00;;;;;;5094045;28;20476;-70
2022/03/01 04:05:59;;;;;;;16.13;7.07;;;0.00;1.00;;;;;;5093863;28;20531;-70
2022/03/01 04:08:27;;;;;;;12.13;6.30;;;-0.10;1.00;;;;;;5093585;28;20477;-70
2022/03/01 04:10:54;;;;;;;10.37;6.57;;;-0.10;1.00;;;;;;5094152;28;20531;-70
2022/03/01 04:13:21;;;;;;;15.27;6.83;;;-0.30;1.00;;;;;;5093523;28;20450;-69
2022/03/01 04:15:48;;;;;;;10.57;7.50;;;-0.10;1.00;;;;;;5093757;28;20483;-70
2022/03/01 04:18:15;;;;;;;13.70;8.20;;;-0.20;1.00;;;;;;5094720;28;20517;-71
2022/03/01 04:20:44;;;;;;;12.17;6.80;;;-0.10;1.00;;;;;;5093142;28;20490;-70
2022/03/01 04:23:13;;;;;;;12.30;7.63;;;-0.20;1.00;;;;;;5093083;28;20486;-69
2022/03/01 04:25:40;;;;;;;12.70;7.63;;;-0.40;1.00;;;;;;5088286;28;20487;-70
2022/03/01 04:28:07;;;;;;;11.67;7.60;;;-0.30;1.00;;;;;;5094213;28;20487;-69
2022/03/01 04:30:34;;;;;;;12.37;7.57;;;-0.40;1.00;;;;;;5093136;28;20439;-70
2022/03/01 04:33:01;;;;;;;10.13;6.47;;;-0.20;1.00;;;;;;5093198;28;20530;-69
2022/03/01 04:35:28;;;;;;;12.57;7.23;;;-0.20;1.00;;;;;;5092475;28;20449;-69
2022/03/01 04:37:57;;;;;;;12.50;6.60;;;-0.20;1.00;;;;;;5093437;28;20441;-69
2022/03/01 04:40:24;;;;;;;10.93;7.97;;;-0.20;1.00;;;;;;5091783;28;20483;-70
2022/03/01 04:42:51;;;;;;;12.70;7.80;;;-0.40;1.00;;;;;;5093097;28;20450;-70
2022/03/01 04:45:17;;;;;;;14.30;6.57;;;-0.50;1.00;;;;;;5092869;28;20879;-69
2022/03/01 04:47:45;;;;;;;12.67;7.33;;;-0.60;1.00;;;;;;5092644;28;20482;-70
2022/03/01 04:50:12;;;;;;;13.73;7.30;;;-0.60;35.60;;;;;;5093015;28;20841;-69
2022/03/01 04:52:39;;;;;;;11.70;6.70;;;-0.70;34.00;;;;;;5092473;28;20451;-69
2022/03/01 04:55:10;;;;;;;12.10;6.87;;;-0.50;99.90;;;;;;5092563;28;20853;-69
2022/03/01 04:57:37;;;;;;;12.97;7.17;;;-0.60;99.90;;;;;;5090633;28;20451;-69
2022/03/01 05:00:10;;;;;;;11.13;6.40;;;-0.40;1.00;;;;;;5092869;28;20482;-70
2022/03/01 05:02:38;;;;;;;16.33;6.67;;;-0.30;1.00;;;;;;5084647;28;20445;-69
2022/03/01 05:05:10;;;;;;;12.33;7.00;;;0.00;1.00;;;;;;5092988;28;20530;-69
2022/03/01 05:07:37;;;;;;;10.37;7.33;;;0.00;1.00;;;;;;5092557;28;20525;-70
2022/03/01 05:10:05;;;;;;;12.90;7.63;;;-0.30;1.00;;;;;;5093275;28;20451;-70
2022/03/01 05:12:40;;;;;;;15.00;7.70;;;-0.30;1.00;;;;;;5090647;28;20531;-70
2022/03/01 05:15:07;;;;;;;14.00;7.83;;;-0.50;1.00;;;;;;5092463;28;20526;-69
2022/03/01 05:17:35;;;;;;;11.30;6.33;;;-0.30;1.00;;;;;;5090199;28;20458;-70
2022/03/01 05:20:02;;;;;;;16.20;7.30;;;-0.30;1.00;;;;;;5088724;28;20449;-70
2022/03/01 05:22:29;;;;;;;10.50;6.80;;;0.00;1.00;;;;;;5092185;28;20458;-70
2022/03/01 05:24:56;;;;;;;11.60;7.70;;;-0.40;1.00;;;;;;5084291;28;20444;-70
2022/03/01 05:27:23;;;;;;;15.17;7.40;;;-0.50;1.00;;;;;;5087716;28;20450;-69
2022/03/01 05:29:51;;;;;;;11.90;7.40;;;-0.30;1.00;;;;;;5085963;28;20533;-69
2022/03/01 05:32:19;;;;;;;14.33;6.90;;;-0.40;1.00;;;;;;5092090;28;20444;-70
2022/03/01 05:34:46;;;;;;;13.53;8.47;;;-0.60;1.00;;;;;;5092532;28;20879;-69
2022/03/01 05:37:13;;;;;;;16.40;7.60;;;-0.60;99.90;;;;;;5090256;28;20797;-71
2022/03/01 05:39:40;;;;;;;14.87;8.30;;;-0.70;1.00;;;;;;5091924;28;20736;-70
2022/03/01 05:42:08;;;;;;;16.30;9.00;;;-0.80;7.90;;;;;;5092085;28;20490;-70
2022/03/01 05:44:35;;;;;;;14.57;7.27;;;-0.50;1.00;;;;;;5091152;28;20928;-70
2022/03/01 05:47:04;;;;;;;12.77;7.17;;;-0.20;1.00;;;;;;5091910;28;20479;-70
2022/03/01 05:49:31;;;;;;;17.23;8.37;;;-0.10;1.00;;;;;;5091627;28;20494;-70
2022/03/01 05:51:58;;;;;;;11.00;7.77;;;0.10;1.00;;;;;;5092395;28;20830;-71
2022/03/01 05:54:25;;;;;;;17.50;9.20;;;0.10;1.00;;;;;;5090664;28;20482;-71
2022/03/01 05:56:51;;;;;;;19.10;8.23;;;-0.20;1.00;;;;;;5091586;28;20458;-70
2022/03/01 05:59:18;;;;;;;16.07;7.70;;;-0.50;1.00;;;;;;5092084;28;20456;-72
2022/03/01 06:01:45;;;;;;;9.40;7.57;;;-0.60;1.00;;;;;;5091414;28;20459;-72
2022/03/01 06:04:14;;;;;;;11.73;7.10;;;-0.70;1.00;;;;;;5091855;28;20462;-71
2022/03/01 06:06:41;;;;;;;13.97;9.20;;;-1.00;99.90;;;;;;5090594;28;20478;-70
2022/03/01 06:09:07;;;;;;;12.17;8.33;;;-0.70;99.90;;;;;;5091585;28;20516;-70
2022/03/01 06:11:34;;;;;;;14.57;7.50;;;-0.90;99.90;;;;;;5090325;28;20456;-70
2022/03/01 06:14:01;;;;;;;18.80;8.20;;;-1.10;99.90;;;;;;5083979;28;20451;-70
2022/03/01 06:16:28;;;;;;;16.47;8.73;;;-0.60;89.40;;;;;;5082218;28;20434;-71
2022/03/01 06:18:55;;;;;;;12.40;6.93;;;-0.60;1.00;;;;;;5091305;28;20460;-71
2022/03/01 06:21:23;;;;;;;11.27;7.27;;;-0.60;1.00;;;;;;5091226;28;20497;-71
2022/03/01 06:23:50;;;;;;;12.07;7.40;;;-0.90;26.00;;;;;;5092069;28;20446;-71
2022/03/01 06:26:17;;;;;;;16.87;7.87;;;-0.90;68.20;;;;;;5091765;28;20525;-72
2022/03/01 06:28:44;;;;;;;10.13;6.70;;;-0.90;99.90;;;;;;5091201;28;20977;-71
2022/03/01 06:31:11;;;;;;;12.60;7.10;;;-0.70;99.90;;;;;;5092921;28;20457;-71
2022/03/01 06:33:37;;;;;;;13.50;7.80;;;-0.80;13.60;;;;;;5093734;28;20446;-72
2022/03/01 06:36:05;;;;;;;11.80;6.80;;;-0.90;92.30;;;;;;5092360;28;20854;-72
2022/03/01 06:38:33;;;;;;;13.40;7.00;;;-0.70;84.00;;;;;;5094764;28;20451;-71
2022/03/01 06:41:00;;;;;;;16.13;7.53;;;-0.50;99.90;;;;;;5100806;28;20447;-70
2022/03/01 06:43:27;;;;;;;9.63;7.20;;;-0.20;1.00;;;;;;5096616;28;20558;-70
2022/03/01 06:45:54;;;;;;;15.57;7.07;;;-0.20;1.00;;;;;;5091526;28;20879;-70
2022/03/01 06:48:21;;;;;;;15.40;8.43;;;-0.50;1.00;;;;;;5091369;28;20467;-70
2022/03/01 06:50:48;;;;;;;13.80;7.13;;;-0.30;1.00;;;;;;5091319;28;20455;-70
2022/03/01 06:53:16;;;;;;;13.80;7.80;;;-0.60;1.00;;;;;;5091467;28;20480;-70
2022/03/01 06:55:45;;;;;;;12.10;7.07;;;-0.80;1.00;;;;;;5090743;28;20442;-71
2022/03/01 06:58:12;;;;;;;8.80;6.00;;;-0.60;1.00;;;;;;5091672;28;20485;-72
2022/03/01 07:00:40;;;;;;;13.20;7.00;;;-0.50;1.00;;;;;;5090480;28;20449;-71
2022/03/01 07:03:07;;;;;;;18.80;7.43;;;-0.40;1.00;;;;;;5090947;28;20445;-72
2022/03/01 07:05:34;;;;;;;10.80;7.27;;;-0.30;1.00;;;;;;5090178;28;20450;-71
2022/03/01 07:08:01;;;;;;;16.97;8.70;;;-0.50;1.00;;;;;;5090914;28;20980;-71
2022/03/01 07:10:28;;;;;;;13.00;7.83;;;-0.40;1.00;;;;;;5090526;28;20458;-70
2022/03/01 07:12:56;;;;;;;14.47;9.13;;;-0.40;1.00;;;;;;5090951;28;20496;-71
2022/03/01 07:15:23;;;;;;;12.93;7.07;;;-0.20;1.00;;;;;;5089858;28;20442;-70
2022/03/01 07:17:50;;;;;;;12.73;7.60;;;-0.20;1.00;;;;;;5091012;28;20473;-70
2022/03/01 07:20:17;;;;;;;11.77;8.00;;;-0.20;1.00;;;;;;5094838;28;20799;-72
2022/03/01 07:22:44;;;;;;;12.43;6.80;;;;;;;;;;5094355;28;21231;-70
2022/03/01 07:25:11;;;;;;;22.50;8.33;;;;;;;;;;5094890;28;20448;-71
2022/03/01 07:27:45;;;;;;;33.63;12.20;;;;;;;;;;5094326;28;20444;-72
2022/03/01 07:30:14;;;;;;;12.80;7.33;;;;;;;;;;5094831;28;20472;-71
2022/03/01 07:32:41;;;;;;;15.07;8.23;;;;;;;;;;5094230;28;20450;-70
2022/03/01 07:35:09;;;;;;;14.40;8.73;;;;;;;;;;5094639;28;20481;-70
2022/03/01 07:37:37;;;;;;;13.80;8.33;;;;;;;;;;5094414;28;20527;-70
2022/03/01 07:40:05;;;;;;;14.93;8.43;;;;;;;;;;5094867;28;20463;-70
2022/03/01 07:42:32;;;;;;;15.17;8.33;;;;;;;;;;5094480;28;20847;-70
2022/03/01 07:45:00;;;;;;;15.67;8.70;;;;;;;;;;5094348;28;20469;-70
2022/03/01 07:47:28;;;;;;;10.60;7.30;;;;;;;;;;5094277;28;20484;-70
2022/03/01 07:49:55;;;;;;;16.90;9.37;;;;;;;;;;5094458;28;20476;-70
2022/03/01 07:52:23;;;;;;;9.60;6.97;;;;;;;;;;5094244;28;20932;-69
2022/03/01 07:54:50;;;;;;;12.47;8.10;;;;;;;;;;5094149;28;20501;-70
2022/03/01 07:57:17;;;;;;;14.93;8.40;;;;;;;;;;5094836;28;20560;-70
2022/03/01 07:59:45;;;;;;;11.30;6.80;;;;;;;;;;5093767;28;20452;-70
2022/03/01 08:02:12;;;;;;;12.33;8.20;;;;;;;;;;5094540;28;20530;-70
2022/03/01 08:04:42;;;;;;;8.77;6.07;;;;;;;;;;5093416;28;20531;-70
2022/03/01 08:07:09;;;;;;;12.57;7.93;;;;;;;;;;5094447;28;20447;-71
2022/03/01 08:09:37;;;;;;;15.93;8.73;;;;;;;;;;5093043;28;20491;-72
2022/03/01 08:12:05;;;;;;;10.77;8.10;;;;;;;;;;5094241;28;20441;-70
2022/03/01 08:14:32;;;;;;;13.20;7.73;;;;;;;;;;5093025;28;20532;-70
2022/03/01 08:17:00;;;;;;;14.17;7.37;;;;;;;;;;5094209;28;20447;-70
2022/03/01 08:19:27;;;;;;;12.53;7.40;;;;;;;;;;5093455;28;20924;-70
2022/03/01 08:21:56;;;;;;;15.90;8.27;;;;;;;;;;5094268;28;20495;-70
2022/03/01 08:24:23;;;;;;;15.37;8.23;;;;;;;;;;5093336;28;20534;-69
2022/03/01 08:26:50;;;;;;;14.37;8.40;;;;;;;;;;5094334;28;20440;-70
2022/03/01 08:29:18;;;;;;;10.10;7.20;;;;;;;;;;5093549;28;20522;-70
2022/03/01 08:31:46;;;;;;;12.87;7.60;;;;;;;;;;5092148;28;20539;-70
2022/03/01 08:34:14;;;;;;;10.83;7.00;;;;;;;;;;5093438;28;20986;-72
2022/03/01 08:36:41;;;;;;;11.30;7.63;;;;;;;;;;5093367;28;20484;-72
2022/03/01 08:39:09;;;;;;;9.47;6.77;;;;;;;;;;5080752;28;20548;-70
2022/03/01 08:41:37;;;;;;;11.37;8.00;;;;;;;;;;5092657;28;20947;-70
2022/03/01 08:44:05;;;;;;;16.27;8.00;;;0.00;1.00;;;;;;5092974;28;20959;-70
2022/03/01 08:46:32;;;;;;;17.70;10.47;;;2.90;99.90;;;;;;5093086;28;20525;-70
2022/03/01 08:48:59;;;;;;;10.43;7.43;;;3.00;99.90;;;;;;5093620;28;20488;-71
2022/03/01 08:51:26;;;;;;;13.03;7.80;;;3.10;99.90;;;;;;5092730;28;20465;-70
2022/03/01 08:53:54;;;;;;;12.70;8.17;;;3.10;99.90;;;;;;5092990;28;20838;-71
2022/03/01 08:56:22;;;;;;;13.90;7.33;;;3.20;99.90;;;;;;5093178;28;20453;-71
2022/03/01 08:58:50;;;;;;;12.03;7.77;;;3.20;99.90;;;;;;5094107;28;20543;-71
2022/03/01 09:01:17;;;;;;;11.07;6.40;;;3.20;99.90;;;;;;5093502;28;20444;-70
2022/03/01 09:03:44;;;;;;;11.90;7.93;;;3.30;99.90;;;;;;5092679;28;20445;-70
2022/03/01 09:06:11;;;;;;;13.20;7.17;;;3.30;98.30;;;;;;5093399;28;20447;-70
2022/03/01 09:08:40;;;;;;;14.50;7.97;;;3.40;97.20;;;;;;5092870;28;20483;-70
2022/03/01 09:11:07;;;;;;;15.37;7.13;;;3.40;95.60;;;;;;5093154;28;21027;-70
2022/03/01 09:13:36;;;;;;;13.33;7.47;;;3.50;94.40;;;;;;5092622;28;20479;-70
2022/03/01 09:16:03;;;;;;;12.50;7.00;;;3.40;91.00;;;;;;5092171;28;20451;-70
2022/03/01 09:18:30;;;;;;;11.07;7.77;;;3.40;90.10;;;;;;5092232;28;20535;-70
2022/03/01 09:20:57;;;;;;;8.73;6.70;;;3.60;95.40;;;;;;5092741;28;20535;-70
2022/03/01 09:23:24;;;;;;;13.67;7.73;;;3.70;81.50;;;;;;5092193;28;20437;-71
2022/03/01 09:25:51;;;;;;;12.33;7.00;;;3.80;75.30;;;;;;5092456;28;20446;-71
2022/03/01 09:28:18;;;;;;;9.83;7.40;;;3.80;72.50;;;;;;5092738;28;20453;-71
2022/03/01 09:30:46;;;;;;;9.97;7.17;;;3.70;68.50;;;;;;5091647;28;21060;-71
2022/03/01 09:33:13;;;;;;;8.20;6.70;;;3.90;82.00;;;;;;5092553;28;20476;-71
2022/03/01 09:35:40;;;;;;;8.77;6.90;;;4.00;66.90;;;;;;5091403;28;20446;-70
2022/03/01 09:38:08;;;;;;;14.93;7.67;;;4.00;62.70;;;;;;5092908;28;20444;-72
2022/03/01 09:40:35;;;;;;;9.90;7.77;;;4.30;67.30;;;;;;5092271;28;20450;-71
2022/03/01 09:43:02;;;;;;;9.90;7.53;;;4.30;59.50;;;;;;5092124;28;21004;-71
2022/03/01 09:45:29;;;;;;;12.37;6.80;;;4.40;57.70;;;;;;5090771;28;20546;-71
2022/03/01 09:47:58;;;;;;;10.50;7.17;;;4.40;55.20;;;;;;5092294;28;20443;-70
2022/03/01 09:50:28;;;;;;;9.77;7.13;;;4.40;51.00;;;;;;5091667;28;20561;-70
2022/03/01 09:52:55;;;;;;;10.00;6.70;;;4.40;46.10;;;;;;5092243;28;20502;-70
2022/03/01 09:55:23;;;;;;;9.80;7.40;;;4.30;46.90;;;;;;5091378;28;20445;-70
2022/03/01 09:57:50;;;;;;;9.63;7.17;;;4.30;46.10;;;;;;5092376;28;20509;-71
2022/03/01 10:00:18;;;;;;;8.97;6.00;;;4.40;45.80;;;;;;5092371;28;20452;-70
2022/03/01 10:02:46;;;;;;;9.73;6.70;;;4.40;45.90;;;;;;5091182;28;20459;-70
2022/03/01 10:05:15;;;;;;;11.67;7.70;;;4.50;44.40;;;;;;5078758;28;20528;-70
2022/03/01 10:07:46;;;;;;;10.77;6.37;;;4.60;42.50;;;;;;5091456;28;20531;-70
2022/03/01 10:10:16;;;;;;;9.70;6.33;;;4.70;40.10;;;;;;5091714;28;20488;-72
2022/03/01 10:12:44;;;;;;;10.20;6.60;;;4.70;38.80;;;;;;5091271;28;20694;-71
2022/03/01 10:15:14;;;;;;;10.40;6.73;;;4.70;37.30;;;;;;5091536;28;20931;-71
2022/03/01 10:17:42;;;;;;;8.10;5.50;;;4.90;36.80;;;;;;5090936;28;20478;-70
2022/03/01 10:20:10;;;;;;;11.73;8.37;;;4.80;35.20;;;;;;5091597;28;20455;-70
2022/03/01 10:22:45;;;;;;;9.40;6.10;;;4.80;34.20;;;;;;5091431;28;20521;-70
2022/03/01 10:25:13;;;;;;;9.07;7.30;;;4.90;32.10;;;;;;5091385;28;20454;-70
2022/03/01 10:27:40;;;;;;;9.03;6.80;;;5.10;31.40;;;;;;5091305;28;20685;-70
2022/03/01 10:30:08;;;;;;;7.87;6.23;;;5.20;29.70;;;;;;5092685;28;20480;-72
2022/03/01 10:32:35;;;;;;;14.70;7.70;;;5.20;27.80;;;;;;5092569;28;20924;-71
2022/03/01 10:35:05;;;;;;;9.00;6.40;;;5.30;27.60;;;;;;5095350;28;20963;-70
2022/03/01 10:37:33;;;;;;;7.10;5.50;;;5.30;27.00;;;;;;5095040;28;20520;-71
2022/03/01 10:40:16;;;;;;;8.23;5.57;;;5.50;24.40;;;;;;5095720;28;20940;-71
2022/03/01 10:42:44;;;;;;;9.27;6.50;;;5.30;22.00;;;;;;5092689;28;20450;-71
2022/03/01 10:45:12;;;;;;;10.90;7.07;;;5.50;22.80;;;;;;5091355;28;20480;-71
2022/03/01 10:47:40;;;;;;;11.63;7.33;;;5.60;20.80;;;;;;5091389;28;20436;-71
2022/03/01 10:50:10;;;;;;;9.37;6.53;;;5.70;19.90;;;;;;5091884;28;20906;-71
2022/03/01 10:52:39;;;;;;;10.57;6.83;;;5.70;19.80;;;;;;5090637;28;20448;-71
2022/03/01 10:55:07;;;;;;;8.77;6.60;;;5.80;19.30;;;;;;5090360;28;20451;-71
2022/03/01 10:57:35;;;;;;;8.77;6.67;;;5.90;17.10;;;;;;5090486;28;20472;-71
2022/03/01 11:00:03;;;;;;;10.50;6.47;;;6.00;15.70;;;;;;5091107;28;20451;-72
2022/03/01 11:02:30;;;;;;;9.33;7.10;;;6.00;14.70;;;;;;5090749;28;20445;-71
2022/03/01 11:04:56;;;;;;;10.77;7.50;;;6.10;13.10;;;;;;5091060;28;20498;-71
2022/03/01 11:07:25;;;;;;;9.40;6.50;;;6.30;12.40;;;;;;5091082;28;20799;-70
2022/03/01 11:09:54;;;;;;;9.77;6.20;;;6.30;9.10;;;;;;5091303;28;20483;-71
2022/03/01 11:12:24;;;;;;;11.73;6.83;;;6.40;10.00;;;;;;5090701;28;20514;-70
2022/03/01 11:15:02;;;;;;;16.10;6.20;;;6.40;9.80;;;;;;5091168;28;20572;-72
2022/03/01 11:17:38;;;;;;;10.93;7.63;;;6.40;8.20;;;;;;5090855;28;20444;-71
2022/03/01 11:20:10;;;;;;;10.03;7.13;;;6.60;7.60;;;;;;5091031;28;20940;-71
2022/03/01 11:22:43;;;;;;;9.90;7.53;;;6.50;6.30;;;;;;5090611;28;20531;-72
2022/03/01 11:25:16;;;;;;;7.70;5.60;;;;;;;;;;5090889;28;20473;-72
2022/03/01 11:27:44;;;;;;;11.10;7.03;;;;;;;;;;5090169;28;20490;-71
2022/03/01 11:30:14;;;;;;;9.67;5.77;;;;;;;;;;5090556;28;20484;-73
2022/03/01 11:32:43;;;;;;;10.63;6.93;;;;;;;;;;5090289;28;20707;-72
2022/03/01 11:35:16;;;;;;;10.97;7.33;;;;;;;;;;5090550;28;20444;-71
2022/03/01 11:37:44;;;;;;;12.23;6.80;;;;;;;;;;5077024;28;20955;-72
2022/03/01 11:40:21;;;;;;;11.00;6.37;;;;;;;;;;5090716;28;20468;-72
2022/03/01 11:42:48;;;;;;;8.70;6.07;;;;;;;;;;5090474;28;20527;-72
2022/03/01 11:45:17;;;;;;;7.20;5.60;;;;;;;;;;5090754;28;20520;-71
2022/03/01 11:47:45;;;;;;;11.17;6.37;;;;;;;;;;5090405;28;20921;-73
2022/03/01 11:50:13;;;;;;;9.07;5.80;;;;;;;;;;5090586;28;20573;-72
2022/03/01 11:52:50;;;;;;;8.90;6.23;;;;;;;;;;5090322;28;20548;-71
2022/03/01 11:55:18;;;;;;;10.73;6.93;;;;;;;;;;5090496;28;20448;-72
2022/03/01 11:57:45;;;;;;;12.50;6.97;;;;;;;;;;5089812;28;20467;-71
2022/03/01 12:00:15;;;;;;;7.57;6.17;;;;;;;;;;5090270;28;20958;-72
2022/03/01 12:02:46;;;;;;;14.57;7.20;;;;;;;;;;5089912;28;20501;-71
2022/03/01 12:05:22;;;;;;;9.80;5.70;;;;;;;;;;5090502;28;20456;-73
2022/03/01 12:07:50;;;;;;;10.93;6.77;;;;;;;;;;5094226;28;20440;-71
2022/03/01 12:10:21;;;;;;;7.47;5.77;;;;;;;;;;5094561;28;20931;-71
2022/03/01 12:12:48;;;;;;;9.80;6.23;;;;;;;;;;5094450;28;20539;-72
2022/03/01 12:15:26;;;;;;;9.50;6.27;;;;;;;;;;5094098;28;20476;-71
2022/03/01 12:17:55;;;;;;;9.73;6.37;;;;;;;;;;5094356;28;20443;-71
2022/03/01 12:20:23;;;;;;;8.40;6.63;;;;;;;;;;5093791;28;20448;-70
2022/03/01 12:22:54;;;;;;;7.00;5.53;;;;;;;;;;5093967;28;20523;-71
2022/03/01 12:25:22;;;;;;;6.33;5.20;;;;;;;;;;5093390;28;20440;-71
2022/03/01 12:27:50;;;;;;;6.90;5.43;;;;;;;;;;5093986;28;21039;-71
2022/03/01 12:30:20;;;;;;;9.67;5.47;;;;;;;;;;5094024;28;20492;-71
2022/03/01 12:32:50;;;;;;;7.70;5.50;;;;;;;;;;5093992;28;20480;-71
2022/03/01 12:35:19;;;;;;;9.77;6.17;;;;;;;;;;5093603;28;20531;-72
2022/03/01 12:37:46;;;;;;;9.43;6.30;;;;;;;;;;5094077;28;20472;-72
2022/03/01 12:40:14;;;;;;;7.27;5.43;;;;;;;;;;5093489;28;20928;-71
2022/03/01 12:42:41;;;;;;;8.70;6.10;;;;;;;;;;5093271;28;20480;-72
2022/03/01 12:45:09;;;;;;;8.50;5.80;;;;;;;;;;5092872;28;20447;-72
2022/03/01 12:47:39;;;;;;;6.47;5.10;;;;;;;;;;5093079;28;20444;-72
2022/03/01 12:50:19;;;;;;;12.53;6.40;;;;;;;;;;5093288;28;20476;-72
2022/03/01 12:52:56;;;;;;;12.17;6.73;;;;;;;;;;5093202;28;20498;-70
2022/03/01 12:55:23;;;;;;;10.30;5.80;;;;;;;;;;5079130;28;20985;-71
2022/03/01 12:57:51;;;;;;;9.13;6.00;;;;;;;;;;5093605;28;20449;-72
2022/03/01 13:00:18;;;;;;;5.87;5.27;;;;;;;;;;5093052;28;20948;-70
2022/03/01 13:02:52;;;;;;;8.80;5.57;;;;;;;;;;5092199;28;20484;-70
2022/03/01 13:05:25;;;;;;;7.43;6.43;;;;;;;;;;5093000;28;20479;-70
2022/03/01 13:07:52;;;;;;;8.00;6.17;;;;;;;;;;5093124;28;20476;-70
2022/03/01 13:10:27;;;;;;;10.43;5.90;;;;;;;;;;5093146;28;20575;-71
2022/03/01 13:12:54;;;;;;;7.60;4.73;;;;;;;;;;5093499;28;20870;-72
2022/03/01 13:15:24;;;;;;;8.33;6.00;;;;;;;;;;5092642;28;20499;-71
2022/03/01 13:17:52;;;;;;;9.63;6.17;;;;;;;;;;5092648;28;20437;-72
2022/03/01 13:20:21;;;;;;;12.83;4.97;;;;;;;;;;5093362;28;20502;-72
2022/03/01 13:23:00;;;;;;;6.73;5.33;;;;;;;;;;5093131;28;20449;-72
2022/03/01 13:25:27;;;;;;;9.93;5.97;;;;;;;;;;5091593;28;20510;-71
2022/03/01 13:27:54;;;;;;;7.37;5.10;;;;;;;;;;5092714;28;20983;-70
2022/03/01 13:30:23;;;;;;;8.10;5.97;;;;;;;;;;5092412;28;20507;-70